Time;durP1;ratioP1;P1;durP2;ratioP2;P2;SDS_P1;SDS_P2;PMS_P1;PMS_P2;Temp;Humidity;BMP_temperature;BMP_pressure;BME280_temperature;BME280_humidity;BME280_pressure;Samples;Min_cycle;Max_cycle;Signal;HPM_P1;HPM_P2
2022/08/07 00:01:22;;;;;;;1.90;1.45;;;17.20;50.90;;;;;;5051565;28;20054;-56
2022/08/07 00:04:08;;;;;;;2.05;1.15;;;17.20;50.90;;;;;;5066435;28;20072;-53
2022/08/07 00:06:41;;;;;;;;;;;17.20;50.80;;;;;;5070930;28;20044;-53
2022/08/07 00:09:19;;;;;;;1.23;1.05;;;17.20;50.40;;;;;;5072402;28;19955;-54
2022/08/07 00:11:49;;;;;;;2.13;1.48;;;17.10;50.40;;;;;;5057334;28;20436;-51
2022/08/07 00:14:25;;;;;;;2.20;1.40;;;17.10;51.00;;;;;;5057932;28;20129;-52
2022/08/07 00:17:00;;;;;;;2.17;1.30;;;17.10;51.40;;;;;;5071546;28;20090;-51
2022/08/07 00:19:30;;;;;;;2.03;1.27;;;17.10;52.10;;;;;;5049367;28;20473;-52
2022/08/07 00:22:21;;;;;;;1.25;1.10;;;17.10;51.90;;;;;;5048263;28;20064;-54
2022/08/07 00:25:08;;;;;;;1.30;1.20;;;17.00;51.80;;;;;;5056657;28;20044;-51
2022/08/07 00:27:43;;;;;;;1.42;1.33;;;17.00;51.90;;;;;;5072224;28;20047;-51
2022/08/07 00:30:20;;;;;;;3.28;1.17;;;17.00;51.90;;;;;;5061403;28;20071;-52
2022/08/07 00:32:58;;;;;;;1.67;1.10;;;17.00;51.90;;;;;;5033890;28;20068;-55
2022/08/07 00:35:27;;;;;;;2.25;1.02;;;17.00;52.20;;;;;;5036876;28;20127;-51
2022/08/07 00:37:57;;;;;;;1.40;1.30;;;16.90;51.90;;;;;;5037840;28;20041;-51
2022/08/07 00:40:28;;;;;;;1.40;1.20;;;16.90;51.90;;;;;;5044461;28;20082;-52
2022/08/07 00:43:13;;;;;;;1.95;0.93;;;17.00;51.80;;;;;;5052186;28;20113;-54
2022/08/07 00:46:03;;;;;;;2.35;1.10;;;16.90;51.90;;;;;;5051324;28;20053;-54
2022/08/07 00:48:33;;;;;;;1.52;1.42;;;16.80;51.60;;;;;;5051210;28;20059;-52
2022/08/07 00:51:01;;;;;;;1.75;1.25;;;16.80;51.60;;;;;;5051401;28;20437;-53
2022/08/07 00:53:28;;;;;;;2.13;1.13;;;16.80;52.00;;;;;;5072465;28;20067;-51
2022/08/07 00:56:17;;;;;;;1.75;1.30;;;16.80;52.30;;;;;;5034313;28;20119;-51
2022/08/07 00:58:44;;;;;;;1.70;1.60;;;16.70;52.40;;;;;;5040133;28;20500;-52
2022/08/07 01:01:14;;;;;;;1.85;1.30;;;16.70;52.50;;;;;;5062759;28;20468;-51
2022/08/07 01:03:41;;;;;;;1.70;1.10;;;16.70;52.40;;;;;;5054570;28;20032;-51
2022/08/07 01:06:28;;;;;;;2.08;1.83;;;16.70;52.30;;;;;;5062525;28;20044;-51
2022/08/07 01:08:56;;;;;;;1.42;1.33;;;16.70;52.30;;;;;;5065260;28;20145;-51
2022/08/07 01:11:30;;;;;;;1.90;1.50;;;16.60;52.90;;;;;;5053024;28;20106;-52
2022/08/07 01:14:19;;;;;;;2.53;1.70;;;16.60;52.70;;;;;;5054047;28;20121;-51
2022/08/07 01:16:59;;;;;;;1.80;1.70;;;16.60;52.40;;;;;;5033058;28;20053;-51
2022/08/07 01:19:33;;;;;;;2.08;1.70;;;16.50;52.30;;;;;;5049946;28;20459;-54
2022/08/07 01:22:10;;;;;;;3.05;1.40;;;16.50;52.50;;;;;;5053238;28;20051;-53
2022/08/07 01:24:58;;;;;;;2.13;1.65;;;16.50;52.80;;;;;;5055503;28;20044;-54
2022/08/07 01:27:28;;;;;;;2.10;1.90;;;16.50;52.70;;;;;;5033884;28;20045;-51
2022/08/07 01:30:05;;;;;;;1.40;1.30;;;16.40;52.70;;;;;;5070774;28;20036;-52
2022/08/07 01:32:33;;;;;;;2.40;2.20;;;16.40;52.80;;;;;;5040472;28;20057;-52
2022/08/07 01:35:02;;;;;;;2.13;1.92;;;16.40;52.80;;;;;;5050384;28;20480;-54
2022/08/07 01:37:37;;;;;;;2.00;1.90;;;16.40;52.80;;;;;;5028559;28;20061;-51
2022/08/07 01:40:06;;;;;;;2.47;1.90;;;16.30;53.10;;;;;;5050165;28;20075;-53
2022/08/07 01:42:48;;;;;;;2.63;1.45;;;16.30;53.10;;;;;;5048542;28;20037;-51
2022/08/07 01:45:28;;;;;;;1.52;1.42;;;16.30;53.20;;;;;;5058036;28;20656;-53
2022/08/07 01:48:05;;;;;;;1.80;1.70;;;16.30;53.20;;;;;;5053010;28;20040;-51
2022/08/07 01:51:00;;;;;;;2.05;1.85;;;16.20;53.20;;;;;;5041342;28;20533;-52
2022/08/07 01:53:53;;;;;;;3.63;2.40;;;16.30;53.80;;;;;;5026442;28;20044;-51
2022/08/07 01:56:47;;;;;;;2.10;1.90;;;16.20;53.50;;;;;;5041352;28;20045;-52
2022/08/07 01:59:20;;;;;;;3.17;2.15;;;16.20;53.60;;;;;;5051302;28;20036;-51
2022/08/07 02:01:55;;;;;;;2.15;1.90;;;16.20;53.70;;;;;;5031665;28;20041;-54
2022/08/07 02:04:41;;;;;;;2.50;2.30;;;16.20;53.60;;;;;;5025663;28;20717;-53
2022/08/07 02:07:32;;;;;;;2.22;2.00;;;16.10;54.60;;;;;;5039083;28;20421;-51
2022/08/07 02:10:23;;;;;;;3.03;2.50;;;16.20;54.40;;;;;;5048120;28;20068;-55
2022/08/07 02:12:51;;;;;;;2.53;2.33;;;16.10;54.50;;;;;;5026185;28;20540;-51
2022/08/07 02:15:26;;;;;;;2.45;2.25;;;16.10;54.30;;;;;;5043151;28;20049;-55
2022/08/07 02:17:57;;;;;;;2.40;2.08;;;16.10;54.20;;;;;;5052112;28;20559;-55
2022/08/07 02:20:27;;;;;;;2.10;1.90;;;16.10;54.00;;;;;;5064775;28;20071;-55
2022/08/07 02:23:00;;;;;;;3.00;2.42;;;16.10;54.10;;;;;;5017506;28;20041;-54
2022/08/07 02:25:35;;;;;;;2.58;2.33;;;16.10;54.30;;;;;;5050303;28;20520;-51
2022/08/07 02:28:27;;;;;;;3.20;2.75;;;16.00;54.20;;;;;;5052730;28;20394;-54
2022/08/07 02:31:02;;;;;;;3.40;2.42;;;16.10;54.10;;;;;;5027231;28;20152;-51
2022/08/07 02:33:55;;;;;;;2.85;2.40;;;16.10;53.90;;;;;;5039802;28;20224;-52
2022/08/07 02:36:46;;;;;;;2.38;2.10;;;16.00;53.80;;;;;;5038768;28;20044;-54
2022/08/07 02:39:23;;;;;;;2.45;1.92;;;16.00;53.70;;;;;;5042377;28;20060;-53
2022/08/07 02:42:21;;;;;;;2.30;2.10;;;16.00;53.70;;;;;;5045888;28;20039;-52
2022/08/07 02:44:51;;;;;;;4.00;2.40;;;15.90;53.60;;;;;;5051929;28;20086;-54
2022/08/07 02:47:21;;;;;;;2.10;1.83;;;15.90;53.70;;;;;;5045027;28;20079;-51
2022/08/07 02:50:13;;;;;;;2.38;2.00;;;15.80;53.40;;;;;;5034045;28;20045;-52
2022/08/07 02:52:43;;;;;;;2.13;2.00;;;15.80;53.50;;;;;;5034730;28;20090;-51
2022/08/07 02:55:22;;;;;;;2.25;2.10;;;15.80;53.60;;;;;;5051926;28;20136;-52
2022/08/07 02:58:17;;;;;;;2.47;1.95;;;15.70;53.90;;;;;;5043168;28;20046;-52
2022/08/07 03:00:54;;;;;;;3.35;2.20;;;15.70;53.80;;;;;;5061820;28;20055;-52
2022/08/07 03:03:26;;;;;;;2.53;2.10;;;15.60;53.60;;;;;;5054872;28;20040;-54
2022/08/07 03:06:22;;;;;;;4.65;2.30;;;15.60;53.80;;;;;;5037548;28;20059;-55
2022/08/07 03:09:02;;;;;;;4.18;2.28;;;15.50;53.60;;;;;;5034040;28;20053;-53
2022/08/07 03:11:32;;;;;;;2.30;2.00;;;15.50;53.60;;;;;;5049548;28;20155;-54
2022/08/07 03:14:19;;;;;;;2.67;2.47;;;15.50;53.80;;;;;;5051619;28;20090;-52
2022/08/07 03:16:49;;;;;;;2.35;1.40;;;15.50;53.80;;;;;;5034238;28;20541;-51
2022/08/07 03:19:21;;;;;;;3.33;2.30;;;15.40;53.70;;;;;;5046949;28;20041;-51
2022/08/07 03:21:52;;;;;;;3.20;2.33;;;15.40;53.70;;;;;;5050333;28;20067;-51
2022/08/07 03:24:19;;;;;;;2.90;2.20;;;15.30;53.90;;;;;;5050370;28;20500;-51
2022/08/07 03:27:07;;;;;;;2.45;2.25;;;15.30;53.90;;;;;;5027057;28;20041;-51
2022/08/07 03:29:51;;;;;;;3.88;2.33;;;15.30;54.00;;;;;;5058904;28;20044;-52
2022/08/07 03:32:26;;;;;;;4.30;2.40;;;15.20;54.00;;;;;;5035307;28;20495;-53
2022/08/07 03:34:58;;;;;;;3.35;1.83;;;15.20;54.30;;;;;;5051732;28;20107;-51
2022/08/07 03:37:50;;;;;;;2.55;2.17;;;15.20;54.40;;;;;;5027850;28;20054;-51
2022/08/07 03:40:24;;;;;;;3.40;2.10;;;15.10;54.20;;;;;;5043420;28;20060;-52
2022/08/07 03:43:15;;;;;;;5.45;2.30;;;15.10;54.20;;;;;;5045431;28;20056;-52
2022/08/07 03:45:48;;;;;;;2.45;2.00;;;15.10;54.40;;;;;;5027637;28;20091;-51
2022/08/07 03:48:20;;;;;;;3.75;2.25;;;15.00;54.20;;;;;;5018414;28;20045;-53
2022/08/07 03:50:48;;;;;;;2.90;2.25;;;15.10;54.40;;;;;;5034062;28;20040;-54
2022/08/07 03:53:27;;;;;;;2.33;2.10;;;15.00;54.30;;;;;;5051771;28;20052;-52
2022/08/07 03:56:22;;;;;;;3.28;2.47;;;15.00;54.40;;;;;;5028071;28;20045;-51
2022/08/07 03:59:08;;;;;;;2.33;2.13;;;15.00;54.60;;;;;;5049373;28;20052;-54
2022/08/07 04:01:47;;;;;;;2.08;1.83;;;14.90;54.40;;;;;;5031011;28;20049;-51
2022/08/07 04:04:19;;;;;;;2.55;2.33;;;14.90;54.60;;;;;;5024619;28;20045;-55
2022/08/07 04:06:51;;;;;;;2.42;2.00;;;14.90;54.60;;;;;;5028020;28;20074;-52
2022/08/07 04:09:26;;;;;;;2.00;1.88;;;14.90;54.50;;;;;;5035972;28;20041;-53
2022/08/07 04:12:13;;;;;;;2.30;2.10;;;14.80;54.60;;;;;;5051084;28;20052;-52
2022/08/07 04:14:56;;;;;;;3.35;2.15;;;14.80;54.50;;;;;;5037540;28;20049;-51
2022/08/07 04:17:26;;;;;;;2.83;2.58;;;14.80;54.60;;;;;;5029312;28;20048;-52
2022/08/07 04:20:13;;;;;;;2.33;2.13;;;14.80;54.60;;;;;;5054299;28;20123;-52
2022/08/07 04:22:42;;;;;;;2.70;2.50;;;14.80;54.70;;;;;;5058420;28;20122;-55
2022/08/07 04:25:27;;;;;;;2.85;2.30;;;14.70;54.80;;;;;;5040305;28;20090;-52
2022/08/07 04:28:01;;;;;;;3.00;1.80;;;14.70;54.80;;;;;;5072213;28;20477;-51
2022/08/07 04:30:34;;;;;;;2.25;2.03;;;14.70;54.90;;;;;;5054342;28;20127;-51
2022/08/07 04:33:18;;;;;;;1.88;1.77;;;14.70;55.10;;;;;;5047214;28;20044;-51
2022/08/07 04:35:54;;;;;;;2.42;2.20;;;14.70;55.10;;;;;;5048120;28;20102;-51
2022/08/07 04:38:27;;;;;;;3.13;2.53;;;14.70;55.30;;;;;;5057776;28;20040;-54
2022/08/07 04:40:56;;;;;;;1.88;1.77;;;14.70;55.50;;;;;;5053131;28;20072;-54
2022/08/07 04:43:36;;;;;;;2.88;2.50;;;14.70;55.50;;;;;;5047277;28;20033;-52
2022/08/07 04:46:37;;;;;;;2.55;2.35;;;14.70;55.80;;;;;;5038196;28;20044;-51
2022/08/07 04:49:41;;;;;;;3.58;2.53;;;14.70;56.20;;;;;;5051508;28;20452;-51
2022/08/07 04:52:57;;;;;;;3.95;1.77;;;14.70;56.70;;;;;;5042152;28;20048;-51
2022/08/07 04:55:51;;;;;;;5.05;2.38;;;14.80;56.70;;;;;;5025719;28;20042;-54
2022/08/07 04:59:15;;;;;;;3.03;2.20;;;14.80;57.00;;;;;;5042601;28;20688;-51
2022/08/07 05:02:09;;;;;;;2.20;2.00;;;14.80;57.00;;;;;;5032172;28;20061;-52
2022/08/07 05:05:21;;;;;;;2.17;1.98;;;14.80;56.30;;;;;;5027953;28;20128;-54
2022/08/07 05:08:35;;;;;;;2.47;2.28;;;14.90;57.40;;;;;;5024022;28;20029;-53
2022/08/07 05:11:34;;;;;;;2.50;2.30;;;14.90;57.50;;;;;;5046563;28;20492;-53
2022/08/07 05:14:27;;;;;;;2.63;2.42;;;14.90;57.40;;;;;;5026105;28;20068;-52
2022/08/07 05:17:18;;;;;;;2.80;2.38;;;14.90;57.10;;;;;;5024551;28;20040;-51
2022/08/07 05:20:12;;;;;;;3.00;2.67;;;15.00;57.10;;;;;;5049051;28;20037;-51
2022/08/07 05:22:43;;;;;;;3.08;2.72;;;15.00;57.40;;;;;;5031052;28;20044;-51
2022/08/07 05:25:13;;;;;;;2.90;2.70;;;15.10;57.60;;;;;;5029203;28;20041;-55
2022/08/07 05:28:01;;;;;;;3.67;3.38;;;15.10;57.80;;;;;;5042619;28;20056;-52
2022/08/07 05:30:48;;;;;;;3.20;2.85;;;15.20;58.00;;;;;;5027214;28;20669;-53
2022/08/07 05:33:22;;;;;;;6.32;3.50;;;15.20;58.30;;;;;;5041827;28;20048;-53
2022/08/07 05:35:51;;;;;;;4.15;3.25;;;15.30;59.00;;;;;;5053823;28;20048;-53
2022/08/07 05:38:24;;;;;;;3.22;3.03;;;15.40;59.00;;;;;;5042375;28;20136;-51
2022/08/07 05:41:14;;;;;;;4.57;4.03;;;15.40;59.00;;;;;;5067493;28;20076;-55
2022/08/07 05:43:53;;;;;;;4.05;3.75;;;15.50;59.00;;;;;;5053866;28;20132;-53
2022/08/07 05:46:43;;;;;;;3.60;3.30;;;15.60;59.40;;;;;;5051547;28;20099;-55
2022/08/07 05:49:11;;;;;;;4.25;3.75;;;15.70;59.40;;;;;;5025963;28;20496;-53
2022/08/07 05:51:46;;;;;;;4.50;3.42;;;15.70;59.50;;;;;;5051493;28;20138;-55
2022/08/07 05:54:17;;;;;;;4.03;3.47;;;15.80;59.70;;;;;;5053045;28;20079;-54
2022/08/07 05:57:11;;;;;;;3.97;3.55;;;15.90;59.80;;;;;;5040292;28;20037;-52
2022/08/07 05:59:47;;;;;;;5.63;4.65;;;16.00;59.60;;;;;;5044692;28;20040;-52
2022/08/07 06:02:29;;;;;;;4.88;4.00;;;16.10;60.70;;;;;;5037213;28;20094;-52
2022/08/07 06:05:11;;;;;;;5.05;4.03;;;16.10;60.40;;;;;;5049537;28;20048;-46
2022/08/07 06:07:48;;;;;;;4.57;4.15;;;16.20;60.80;;;;;;5037380;28;20052;-47
2022/08/07 06:10:37;;;;;;;6.68;4.78;;;16.30;60.60;;;;;;5039421;28;20040;-46
2022/08/07 06:13:10;;;;;;;5.90;4.47;;;16.40;60.00;;;;;;5046288;28;20073;-51
2022/08/07 06:15:43;;;;;;;5.97;4.60;;;16.50;60.40;;;;;;5037725;28;20049;-51
2022/08/07 06:18:17;;;;;;;5.25;4.75;;;16.60;60.40;;;;;;5040570;28;20144;-46
2022/08/07 06:20:45;;;;;;;4.35;3.95;;;16.60;60.20;;;;;;5048334;28;20437;-47
2022/08/07 06:23:38;;;;;;;7.03;4.95;;;16.70;60.10;;;;;;5030980;28;20047;-47
2022/08/07 06:26:28;;;;;;;5.38;4.60;;;16.80;59.90;;;;;;5044437;28;20119;-47
2022/08/07 06:28:58;;;;;;;5.53;4.85;;;16.90;59.90;;;;;;5039466;28;20135;-50
2022/08/07 06:31:29;;;;;;;6.13;4.82;;;17.00;60.00;;;;;;5067929;28;20123;-49
2022/08/07 06:34:16;;;;;;;5.32;4.80;;;17.10;59.60;;;;;;5058391;28;20119;-47
2022/08/07 06:36:51;;;;;;;4.57;4.18;;;17.20;59.60;;;;;;5033043;28;20103;-47
2022/08/07 06:39:25;;;;;;;6.05;4.50;;;17.20;59.50;;;;;;5043035;28;20558;-51
2022/08/07 06:42:28;;;;;;;4.97;4.15;;;17.30;59.90;;;;;;5043988;28;20858;-53
2022/08/07 06:45:22;;;;;;;5.88;4.25;;;17.40;60.70;;;;;;5030740;28;20057;-48
2022/08/07 06:47:56;;;;;;;5.13;4.63;;;17.50;59.90;;;;;;5027474;28;20572;-49
2022/08/07 06:50:44;;;;;;;4.43;4.00;;;17.50;59.80;;;;;;5033909;28;20049;-54
2022/08/07 06:53:17;;;;;;;4.95;4.43;;;17.60;59.80;;;;;;5023871;28;20867;-50
2022/08/07 06:56:06;;;;;;;6.38;4.95;;;17.60;59.60;;;;;;5028878;28;20505;-49
2022/08/07 06:58:48;;;;;;;7.95;4.22;;;17.70;59.40;;;;;;5049698;28;20389;-48
2022/08/07 07:01:40;;;;;;;4.43;3.55;;;17.80;59.70;;;;;;5038496;28;20470;-46
2022/08/07 07:04:17;;;;;;;4.63;4.20;;;17.80;59.30;;;;;;5047894;28;20202;-50
2022/08/07 07:07:00;;;;;;;5.45;3.90;;;17.90;59.40;;;;;;5050939;28;20050;-53
2022/08/07 07:09:29;;;;;;;4.60;3.75;;;18.00;59.00;;;;;;5031238;28;20509;-51
2022/08/07 07:12:06;;;;;;;3.95;3.47;;;18.00;59.00;;;;;;5027794;28;20057;-49
2022/08/07 07:14:50;;;;;;;5.32;3.88;;;18.10;58.80;;;;;;5032112;28;20720;-50
2022/08/07 07:17:23;;;;;;;3.42;3.13;;;18.10;58.40;;;;;;5055386;28;20083;-50
2022/08/07 07:20:26;;;;;;;4.70;3.40;;;18.20;58.50;;;;;;5041777;28;20175;-53
2022/08/07 07:22:54;;;;;;;4.50;3.28;;;18.30;58.60;;;;;;5043926;28;20047;-49
2022/08/07 07:25:43;;;;;;;5.90;3.42;;;18.30;57.90;;;;;;5045453;28;20115;-47
2022/08/07 07:28:39;;;;;;;4.18;2.75;;;18.40;57.40;;;;;;5038598;28;20444;-48
2022/08/07 07:31:31;;;;;;;3.25;2.95;;;18.50;57.40;;;;;;5042925;28;20124;-50
2022/08/07 07:34:09;;;;;;;2.80;2.58;;;18.60;57.10;;;;;;5061722;28;20037;-50
2022/08/07 07:36:43;;;;;;;3.47;2.35;;;18.70;56.60;;;;;;5045781;28;20090;-49
2022/08/07 07:39:19;;;;;;;4.57;2.53;;;18.70;56.00;;;;;;5049732;28;20049;-48
2022/08/07 07:41:50;;;;;;;3.30;2.88;;;18.80;56.30;;;;;;5044137;28;20052;-48
2022/08/07 07:44:40;;;;;;;4.40;2.25;;;18.80;56.20;;;;;;5061165;28;20116;-49
2022/08/07 07:47:08;;;;;;;2.60;1.65;;;18.90;55.20;;;;;;5045916;28;20065;-46
2022/08/07 07:49:51;;;;;;;2.65;2.40;;;19.00;54.80;;;;;;5043208;28;20041;-50
2022/08/07 07:52:40;;;;;;;3.40;2.60;;;19.10;55.30;;;;;;5053663;28;20059;-48
2022/08/07 07:55:08;;;;;;;3.05;2.60;;;19.20;55.50;;;;;;5070593;28;20106;-47
2022/08/07 07:57:39;;;;;;;2.65;2.25;;;19.20;55.50;;;;;;5065076;28;20048;-51
2022/08/07 08:00:19;;;;;;;5.40;2.45;;;19.30;55.30;;;;;;5037488;28;20155;-49
2022/08/07 08:03:12;;;;;;;4.07;2.63;;;19.40;55.30;;;;;;5060641;28;20044;-48
2022/08/07 08:05:59;;;;;;;4.43;2.15;;;19.50;55.10;;;;;;5070763;28;20064;-49
2022/08/07 08:08:29;;;;;;;3.20;2.45;;;19.60;54.80;;;;;;5048518;28;20045;-51
2022/08/07 08:11:06;;;;;;;2.25;2.05;;;19.60;54.10;;;;;;5067289;28;20557;-53
2022/08/07 08:13:39;;;;;;;2.45;2.20;;;19.70;54.10;;;;;;5072779;28;20117;-47
2022/08/07 08:16:31;;;;;;;5.00;2.63;;;19.80;53.20;;;;;;5066219;28;20053;-49
2022/08/07 08:19:03;;;;;;;5.05;2.80;;;19.90;53.50;;;;;;5051605;28;20401;-50
2022/08/07 08:27:51;;;;;;;1.40;1.30;;;20.20;52.80;;;;;;5048641;28;20086;-50
2022/08/07 08:30:27;;;;;;;1.98;1.20;;;20.20;52.30;;;;;;5060829;28;20552;-47
2022/08/07 08:32:59;;;;;;;1.70;1.40;;;20.30;51.90;;;;;;5072450;28;20072;-47
2022/08/07 08:35:28;;;;;;;1.52;1.42;;;20.40;51.30;;;;;;5065363;28;20122;-53
2022/08/07 08:38:18;;;;;;;2.00;1.00;;;20.50;51.10;;;;;;5046173;28;20037;-52
2022/08/07 08:40:54;;;;;;;2.67;1.08;;;20.60;50.60;;;;;;5051527;28;20048;-54
2022/08/07 08:43:39;;;;;;;0.98;0.80;;;20.70;49.90;;;;;;5048972;28;20044;-53
2022/08/07 08:46:31;;;;;;;2.08;0.90;;;20.70;49.00;;;;;;5061924;28;20037;-54
2022/08/07 08:49:07;;;;;;;1.55;0.68;;;20.80;48.30;;;;;;5022282;28;20060;-53
2022/08/07 08:51:47;;;;;;;0.85;0.73;;;20.90;48.00;;;;;;5044884;28;20045;-55
2022/08/07 08:55:07;;;;;;;1.25;0.50;;;21.00;47.10;;;;;;5058855;28;20040;-55
2022/08/07 08:57:59;;;;;;;0.60;0.60;;;21.10;47.70;;;;;;5036348;28;20132;-55
2022/08/07 09:00:31;;;;;;;0.82;0.60;;;21.20;47.00;;;;;;5050336;28;20071;-53
2022/08/07 09:03:33;;;;;;;1.00;0.55;;;21.20;46.90;;;;;;5054199;28;20041;-54
2022/08/07 09:06:54;;;;;;;0.70;0.52;;;21.30;46.20;;;;;;5027349;28;20540;-53
2022/08/07 09:09:31;;;;;;;0.50;0.35;;;21.40;46.20;;;;;;5053612;28;20517;-55
2022/08/07 09:12:24;;;;;;;2.92;0.85;;;21.50;45.90;;;;;;5069560;28;20048;-55
2022/08/07 09:15:28;;;;;;;0.50;0.50;;;21.50;46.30;;;;;;5047418;28;20048;-55
2022/08/07 09:18:31;;;;;;;0.77;0.30;;;21.60;45.00;;;;;;5070183;28;20044;-55
2022/08/07 09:21:14;;;;;;;0.35;0.30;;;21.70;44.50;;;;;;5056910;28;20051;-54
2022/08/07 09:24:15;;;;;;;0.85;0.47;;;21.80;43.70;;;;;;5041723;28;20571;-54
2022/08/07 09:27:08;;;;;;;0.75;0.45;;;21.90;43.20;;;;;;5069803;28;20125;-55
2022/08/07 09:29:44;;;;;;;2.50;1.50;;;22.00;44.10;;;;;;5070568;28;20044;-52
2022/08/07 09:33:11;;;;;;;1.85;0.73;;;22.00;44.00;;;;;;5061917;28;20069;-55
2022/08/07 09:36:00;;;;;;;2.33;0.60;;;22.10;43.70;;;;;;5057772;28;20047;-54
2022/08/07 09:38:53;;;;;;;2.00;0.50;;;22.20;44.10;;;;;;5050901;28;20044;-53
2022/08/07 09:41:50;;;;;;;0.63;0.60;;;22.20;43.70;;;;;;5065082;28;20040;-53
2022/08/07 09:44:48;;;;;;;0.40;0.38;;;22.30;43.40;;;;;;5055968;28;20044;-55
2022/08/07 09:48:05;;;;;;;0.52;0.47;;;22.40;43.20;;;;;;5058762;28;20051;-51
2022/08/07 09:50:58;;;;;;;5.53;1.33;;;22.50;42.80;;;;;;5052608;28;20060;-52
2022/08/07 09:53:26;;;;;;;0.75;0.52;;;22.50;42.60;;;;;;5058595;28;20045;-55
2022/08/07 09:56:52;;;;;;;0.70;0.70;;;22.50;42.40;;;;;;5068524;28;20040;-54
2022/08/07 09:59:51;;;;;;;2.22;0.63;;;22.70;42.70;;;;;;5052197;28;20041;-51
2022/08/07 10:02:49;;;;;;;0.88;0.32;;;22.70;42.50;;;;;;5045665;28;20525;-55
2022/08/07 10:05:30;;;;;;;0.30;0.30;;;22.80;41.20;;;;;;5043702;28;20135;-55
2022/08/07 10:08:38;;;;;;;0.73;0.70;;;22.80;40.70;;;;;;5066211;28;20532;-55
2022/08/07 10:11:39;;;;;;;0.50;0.40;;;22.90;40.60;;;;;;5046162;28;20038;-51
2022/08/07 10:14:48;;;;;;;2.85;0.38;;;23.00;40.50;;;;;;5062579;28;20143;-53
2022/08/07 10:17:39;;;;;;;1.75;0.47;;;23.00;41.10;;;;;;5029106;28;20041;-57
2022/08/07 10:21:04;;;;;;;0.40;0.40;;;23.10;40.90;;;;;;5043146;28;20073;-55
2022/08/07 10:24:01;;;;;;;1.08;0.40;;;23.20;40.80;;;;;;5056456;28;20608;-55
2022/08/07 10:26:47;;;;;;;1.08;0.50;;;23.20;40.30;;;;;;5029536;28;20136;-54
2022/08/07 10:29:28;;;;;;;0.70;0.30;;;23.30;39.70;;;;;;5049111;28;20572;-54
2022/08/07 10:32:17;;;;;;;0.30;0.30;;;23.30;40.00;;;;;;5066256;28;20445;-55
2022/08/07 10:35:18;;;;;;;0.40;0.40;;;23.40;39.70;;;;;;5035825;28;20744;-55
2022/08/07 10:38:28;;;;;;;0.32;0.30;;;23.40;40.10;;;;;;5043428;28;20056;-55
2022/08/07 10:41:17;;;;;;;4.87;0.63;;;23.50;39.50;;;;;;5066447;28;20051;-55
2022/08/07 10:44:10;;;;;;;1.98;0.40;;;23.50;39.60;;;;;;5068747;28;20389;-56
2022/08/07 10:46:46;;;;;;;1.30;0.60;;;23.60;39.60;;;;;;5048579;28;20056;-54
2022/08/07 10:49:42;;;;;;;0.47;0.30;;;23.60;38.30;;;;;;5054229;28;20077;-55
2022/08/07 10:52:45;;;;;;;0.85;0.40;;;23.70;38.40;;;;;;5051863;28;20598;-55
2022/08/07 10:55:22;;;;;;;0.40;0.40;;;23.70;38.90;;;;;;5049235;28;20116;-53
2022/08/07 10:58:10;;;;;;;0.30;0.28;;;23.80;38.20;;;;;;5041172;28;20053;-54
2022/08/07 11:01:04;;;;;;;0.55;0.20;;;23.80;38.40;;;;;;5039426;28;20132;-54
2022/08/07 11:03:44;;;;;;;0.95;0.30;;;23.90;37.90;;;;;;5050638;28;20072;-53
2022/08/07 11:06:43;;;;;;;0.80;0.40;;;23.90;38.50;;;;;;5054511;28;20048;-56
2022/08/07 11:09:24;;;;;;;0.38;0.38;;;24.00;37.50;;;;;;5032901;28;20033;-53
2022/08/07 11:12:18;;;;;;;0.63;0.30;;;24.00;37.70;;;;;;5035661;28;20033;-55
2022/08/07 11:15:03;;;;;;;0.88;0.43;;;24.10;37.60;;;;;;5058368;28;20048;-54
2022/08/07 11:18:09;;;;;;;;;;;24.20;37.30;;;;;;5054183;28;20500;-48
2022/08/07 11:20:55;;;;;;;1.50;0.30;;;24.30;38.80;;;;;;5018632;28;20034;-52
2022/08/07 11:24:04;;;;;;;1.25;0.50;;;24.30;37.00;;;;;;5047506;28;20341;-65
2022/08/07 11:27:12;;;;;;;0.90;0.40;;;24.40;37.70;;;;;;5040321;28;20071;-64
2022/08/07 11:29:59;;;;;;;1.20;0.30;;;24.50;38.70;;;;;;4997837;28;20051;-48
2022/08/07 11:32:59;;;;;;;0.85;0.30;;;24.60;37.30;;;;;;5031273;28;20111;-52
2022/08/07 11:36:07;;;;;;;0.97;0.60;;;24.70;36.70;;;;;;5049824;28;20122;-51
2022/08/07 11:38:51;;;;;;;1.33;0.57;;;24.70;37.00;;;;;;5046132;28;20279;-48
2022/08/07 11:41:23;;;;;;;0.63;0.40;;;24.80;36.50;;;;;;5072328;28;20049;-49
2022/08/07 11:44:34;;;;;;;0.50;0.50;;;24.90;37.00;;;;;;5053032;28;20505;-51
2022/08/07 11:47:27;;;;;;;2.60;0.70;;;25.00;36.60;;;;;;5068177;28;20041;-52
2022/08/07 11:50:21;;;;;;;0.75;0.47;;;25.10;36.60;;;;;;5072129;28;20075;-54
2022/08/07 11:53:22;;;;;;;0.90;0.50;;;25.10;36.70;;;;;;5069244;28;20033;-52
2022/08/07 11:56:14;;;;;;;1.40;0.40;;;25.30;36.10;;;;;;5060077;28;20037;-51
2022/08/07 11:58:59;;;;;;;0.30;0.30;;;25.30;35.80;;;;;;5055396;28;20600;-51
2022/08/07 12:02:00;;;;;;;0.50;0.50;;;25.40;35.80;;;;;;5051992;28;20051;-48
2022/08/07 12:04:33;;;;;;;1.65;0.43;;;25.40;35.20;;;;;;5053143;28;20043;-52
2022/08/07 12:07:13;;;;;;;2.05;0.43;;;25.40;34.80;;;;;;5069390;28;20090;-52
2022/08/07 12:10:07;;;;;;;1.15;0.65;;;25.40;35.40;;;;;;5052880;28;20516;-53
2022/08/07 12:12:41;;;;;;;0.40;0.40;;;25.50;35.40;;;;;;5051918;28;20548;-51
2022/08/07 12:15:18;;;;;;;1.33;0.50;;;25.50;35.50;;;;;;5066949;28;20040;-53
2022/08/07 12:18:35;;;;;;;0.80;0.63;;;25.60;35.20;;;;;;5041174;28;20072;-48
2022/08/07 12:21:23;;;;;;;0.82;0.43;;;25.60;35.30;;;;;;5022784;28;20152;-49
2022/08/07 12:24:21;;;;;;;1.25;0.50;;;25.70;35.20;;;;;;5051293;28;20030;-47
2022/08/07 12:27:12;;;;;;;0.65;0.40;;;25.80;34.70;;;;;;5041527;28;20058;-50
2022/08/07 12:29:58;;;;;;;0.98;0.50;;;25.80;34.20;;;;;;5042369;28;20072;-51
2022/08/07 12:32:40;;;;;;;1.38;0.73;;;25.90;34.90;;;;;;5055631;28;20396;-51
2022/08/07 12:35:11;;;;;;;0.47;0.40;;;25.90;34.40;;;;;;5051558;28;20045;-54
2022/08/07 12:37:40;;;;;;;0.82;0.40;;;26.00;34.20;;;;;;5050085;28;20533;-51
2022/08/07 12:40:31;;;;;;;1.02;0.80;;;26.10;33.90;;;;;;5038224;28;20135;-49
2022/08/07 12:43:26;;;;;;;2.30;0.60;;;26.20;33.80;;;;;;5069572;28;20047;-51
2022/08/07 12:46:41;;;;;;;0.50;0.47;;;26.20;33.60;;;;;;5071724;28;20047;-49
2022/08/07 12:49:32;;;;;;;2.47;0.60;;;26.30;33.80;;;;;;5054253;28;20044;-50
2022/08/07 12:52:42;;;;;;;0.50;0.50;;;26.40;33.60;;;;;;5049851;28;20115;-52
2022/08/07 12:55:14;;;;;;;0.65;0.60;;;26.50;33.20;;;;;;5048384;28;20120;-48
2022/08/07 12:57:45;;;;;;;1.45;0.60;;;26.60;33.90;;;;;;5023129;28;20052;-51
2022/08/07 13:00:53;;;;;;;0.77;0.60;;;26.60;33.20;;;;;;5045541;28;20052;-51
2022/08/07 13:03:41;;;;;;;1.45;0.60;;;26.80;33.10;;;;;;5044602;28;20452;-48
2022/08/07 13:06:35;;;;;;;1.85;0.43;;;26.80;33.30;;;;;;5044725;28;20146;-50
2022/08/07 13:10:02;;;;;;;0.93;0.60;;;26.90;32.80;;;;;;5050294;28;20676;-50
2022/08/07 13:12:53;;;;;;;0.43;0.43;;;27.00;33.50;;;;;;5048250;28;20073;-52
2022/08/07 13:15:37;;;;;;;0.30;0.30;;;27.10;32.80;;;;;;5042555;28;20045;-52
2022/08/07 13:18:42;;;;;;;0.93;0.75;;;27.30;32.90;;;;;;5049730;28;20095;-52
2022/08/07 13:21:20;;;;;;;1.38;0.50;;;27.40;32.20;;;;;;5038177;28;20132;-50
2022/08/07 13:24:29;;;;;;;1.25;0.90;;;27.50;33.20;;;;;;5042972;28;20043;-53
2022/08/07 13:27:15;;;;;;;2.08;0.80;;;27.70;32.80;;;;;;5041614;28;20041;-50
2022/08/07 13:30:08;;;;;;;1.83;1.15;;;27.80;33.00;;;;;;5049416;28;20133;-48
2022/08/07 13:33:10;;;;;;;2.55;0.80;;;28.00;32.30;;;;;;5065163;28;20117;-51
2022/08/07 13:36:04;;;;;;;1.47;0.60;;;28.20;32.40;;;;;;5046529;28;20049;-50
2022/08/07 13:38:57;;;;;;;0.75;0.68;;;28.40;32.50;;;;;;5045805;28;20497;-51
2022/08/07 13:41:43;;;;;;;1.27;1.00;;;28.80;32.70;;;;;;5044225;28;20401;-49
2022/08/07 13:44:18;;;;;;;1.98;0.60;;;29.40;32.40;;;;;;5045870;28;20162;-48
2022/08/07 13:46:57;;;;;;;1.08;0.40;;;30.30;32.10;;;;;;5047173;28;20094;-48
2022/08/07 13:49:32;;;;;;;0.73;0.43;;;31.40;32.20;;;;;;5047548;28;20524;-52
2022/08/07 13:52:20;;;;;;;1.58;0.50;;;32.50;31.30;;;;;;5041202;28;20037;-50
2022/08/07 13:55:07;;;;;;;1.98;0.75;;;33.90;31.60;;;;;;5045672;28;20049;-47
2022/08/07 13:57:43;;;;;;;0.93;0.45;;;35.20;29.70;;;;;;5059558;28;20052;-51
2022/08/07 14:00:35;;;;;;;2.00;0.40;;;36.60;29.10;;;;;;5051031;28;20887;-52
2022/08/07 14:03:23;;;;;;;2.17;0.40;;;38.00;28.20;;;;;;5046494;28;20049;-50
2022/08/07 14:06:08;;;;;;;0.70;0.40;;;39.30;27.80;;;;;;5045813;28;20041;-51
2022/08/07 14:08:48;;;;;;;0.70;0.63;;;40.50;26.70;;;;;;5058422;28;20072;-49
2022/08/07 14:11:21;;;;;;;1.48;0.60;;;41.40;25.10;;;;;;5029424;28;20046;-51
2022/08/07 14:14:02;;;;;;;0.80;0.40;;;42.10;24.70;;;;;;5051807;28;20040;-51
2022/08/07 14:16:33;;;;;;;1.27;0.73;;;42.50;24.10;;;;;;5055703;28;20412;-51
2022/08/07 14:19:10;;;;;;;0.90;0.40;;;42.80;23.80;;;;;;5051842;28;20040;-51
2022/08/07 14:21:58;;;;;;;1.58;0.60;;;43.10;24.00;;;;;;5053848;28;20138;-52
2022/08/07 14:24:41;;;;;;;0.93;0.60;;;43.40;23.30;;;;;;5045774;28;20552;-49